sensor_id;sensor_type;location;lat;lon;timestamp;P1;durP1;ratioP1;P2;durP2;ratioP2
36551;SDS011;22559;54.176;12.102;2022-12-29T00:01:53;5.83;;;3.80;;
36551;SDS011;22559;54.176;12.102;2022-12-29T00:04:18;3.90;;;3.50;;
36551;SDS011;22559;54.176;12.102;2022-12-29T00:06:44;4.20;;;3.53;;
36551;SDS011;22559;54.176;12.102;2022-12-29T00:09:11;4.53;;;3.97;;
36551;SDS011;22559;54.176;12.102;2022-12-29T00:11:37;3.40;;;3.10;;
36551;SDS011;22559;54.176;12.102;2022-12-29T00:14:03;5.47;;;4.97;;
36551;SDS011;22559;54.176;12.102;2022-12-29T00:16:48;5.33;;;4.93;;
36551;SDS011;22559;54.176;12.102;2022-12-29T00:19:14;5.60;;;5.10;;
36551;SDS011;22559;54.176;12.102;2022-12-29T00:21:58;4.93;;;4.53;;
36551;SDS011;22559;54.176;12.102;2022-12-29T00:24:43;6.63;;;6.13;;
36551;SDS011;22559;54.176;12.102;2022-12-29T00:27:28;5.13;;;3.30;;
36551;SDS011;22559;54.176;12.102;2022-12-29T00:30:17;5.73;;;3.73;;
36551;SDS011;22559;54.176;12.102;2022-12-29T00:33:15;4.37;;;3.60;;
36551;SDS011;22559;54.176;12.102;2022-12-29T00:36:02;4.60;;;4.13;;
36551;SDS011;22559;54.176;12.102;2022-12-29T00:38:43;6.47;;;4.00;;
36551;SDS011;22559;54.176;12.102;2022-12-29T00:41:31;4.67;;;4.27;;
36551;SDS011;22559;54.176;12.102;2022-12-29T00:44:15;4.60;;;4.20;;
36551;SDS011;22559;54.176;12.102;2022-12-29T00:46:41;7.67;;;3.93;;
36551;SDS011;22559;54.176;12.102;2022-12-29T00:49:09;7.93;;;4.30;;
36551;SDS011;22559;54.176;12.102;2022-12-29T00:51:54;5.37;;;4.23;;
36551;SDS011;22559;54.176;12.102;2022-12-29T00:54:21;5.30;;;4.80;;
36551;SDS011;22559;54.176;12.102;2022-12-29T00:56:48;6.10;;;4.30;;
36551;SDS011;22559;54.176;12.102;2022-12-29T00:59:14;4.60;;;4.20;;
36551;SDS011;22559;54.176;12.102;2022-12-29T01:01:40;6.67;;;5.00;;
36551;SDS011;22559;54.176;12.102;2022-12-29T01:04:06;6.23;;;4.83;;
36551;SDS011;22559;54.176;12.102;2022-12-29T01:06:33;5.40;;;4.77;;
36551;SDS011;22559;54.176;12.102;2022-12-29T01:08:59;5.00;;;4.50;;
36551;SDS011;22559;54.176;12.102;2022-12-29T01:11:44;5.10;;;4.07;;
36551;SDS011;22559;54.176;12.102;2022-12-29T01:14:09;6.47;;;5.07;;
36551;SDS011;22559;54.176;12.102;2022-12-29T01:16:35;7.20;;;4.67;;
36551;SDS011;22559;54.176;12.102;2022-12-29T01:19:01;4.83;;;4.37;;
36551;SDS011;22559;54.176;12.102;2022-12-29T01:21:27;7.10;;;4.80;;
36551;SDS011;22559;54.176;12.102;2022-12-29T01:23:53;4.97;;;4.43;;
36551;SDS011;22559;54.176;12.102;2022-12-29T01:26:19;5.43;;;4.93;;
36551;SDS011;22559;54.176;12.102;2022-12-29T01:28:45;5.03;;;4.53;;
36551;SDS011;22559;54.176;12.102;2022-12-29T01:31:12;6.40;;;4.97;;
36551;SDS011;22559;54.176;12.102;2022-12-29T01:33:39;4.63;;;4.23;;
36551;SDS011;22559;54.176;12.102;2022-12-29T01:36:06;5.47;;;4.97;;
36551;SDS011;22559;54.176;12.102;2022-12-29T01:38:34;7.90;;;5.07;;
36551;SDS011;22559;54.176;12.102;2022-12-29T01:41:01;5.43;;;4.93;;
36551;SDS011;22559;54.176;12.102;2022-12-29T01:49:13;4.77;;;4.30;;
36551;SDS011;22559;54.176;12.102;2022-12-29T01:51:48;5.00;;;4.53;;
36551;SDS011;22559;54.176;12.102;2022-12-29T01:54:26;6.63;;;5.40;;
36551;SDS011;22559;54.176;12.102;2022-12-29T01:56:53;5.17;;;4.40;;
36551;SDS011;22559;54.176;12.102;2022-12-29T01:59:23;5.90;;;4.50;;
36551;SDS011;22559;54.176;12.102;2022-12-29T02:01:52;5.87;;;5.07;;
36551;SDS011;22559;54.176;12.102;2022-12-29T02:04:17;5.70;;;5.20;;
36551;SDS011;22559;54.176;12.102;2022-12-29T02:06:46;6.20;;;5.03;;
36551;SDS011;22559;54.176;12.102;2022-12-29T02:09:16;6.10;;;5.43;;
36551;SDS011;22559;54.176;12.102;2022-12-29T02:11:42;5.50;;;5.00;;
36551;SDS011;22559;54.176;12.102;2022-12-29T02:14:09;8.60;;;4.87;;
36551;SDS011;22559;54.176;12.102;2022-12-29T02:33:52;5.73;;;4.37;;
36551;SDS011;22559;54.176;12.102;2022-12-29T02:36:46;5.33;;;4.83;;
36551;SDS011;22559;54.176;12.102;2022-12-29T02:42:24;9.37;;;5.30;;
36551;SDS011;22559;54.176;12.102;2022-12-29T02:45:22;4.90;;;4.40;;
36551;SDS011;22559;54.176;12.102;2022-12-29T02:50:30;5.93;;;4.67;;
36551;SDS011;22559;54.176;12.102;2022-12-29T02:53:09;5.23;;;4.10;;
36551;SDS011;22559;54.176;12.102;2022-12-29T02:55:46;5.50;;;4.70;;
36551;SDS011;22559;54.176;12.102;2022-12-29T03:03:48;4.30;;;3.90;;
36551;SDS011;22559;54.176;12.102;2022-12-29T03:09:50;4.80;;;4.33;;
36551;SDS011;22559;54.176;12.102;2022-12-29T03:12:29;5.33;;;4.70;;
36551;SDS011;22559;54.176;12.102;2022-12-29T03:15:21;6.17;;;4.40;;
36551;SDS011;22559;54.176;12.102;2022-12-29T03:18:15;4.27;;;3.87;;
36551;SDS011;22559;54.176;12.102;2022-12-29T03:20:52;5.40;;;4.90;;
36551;SDS011;22559;54.176;12.102;2022-12-29T03:23:41;6.07;;;4.77;;
36551;SDS011;22559;54.176;12.102;2022-12-29T03:26:12;4.10;;;3.80;;
36551;SDS011;22559;54.176;12.102;2022-12-29T03:28:46;4.50;;;4.10;;
36551;SDS011;22559;54.176;12.102;2022-12-29T03:31:16;6.37;;;3.83;;
36551;SDS011;22559;54.176;12.102;2022-12-29T03:33:44;7.20;;;4.20;;
36551;SDS011;22559;54.176;12.102;2022-12-29T03:36:13;5.63;;;4.70;;
36551;SDS011;22559;54.176;12.102;2022-12-29T03:38:55;4.40;;;4.00;;
36551;SDS011;22559;54.176;12.102;2022-12-29T03:41:28;4.30;;;3.80;;
36551;SDS011;22559;54.176;12.102;2022-12-29T03:43:56;4.50;;;4.10;;
36551;SDS011;22559;54.176;12.102;2022-12-29T03:46:23;5.00;;;4.53;;
36551;SDS011;22559;54.176;12.102;2022-12-29T03:48:49;5.10;;;4.27;;
36551;SDS011;22559;54.176;12.102;2022-12-29T03:51:14;4.63;;;4.30;;
36551;SDS011;22559;54.176;12.102;2022-12-29T03:53:40;5.47;;;4.27;;
36551;SDS011;22559;54.176;12.102;2022-12-29T03:56:06;4.77;;;4.27;;
36551;SDS011;22559;54.176;12.102;2022-12-29T03:58:31;4.80;;;4.40;;
36551;SDS011;22559;54.176;12.102;2022-12-29T04:00:57;4.57;;;4.17;;
36551;SDS011;22559;54.176;12.102;2022-12-29T04:03:23;4.17;;;3.77;;
36551;SDS011;22559;54.176;12.102;2022-12-29T04:05:48;3.87;;;3.57;;
36551;SDS011;22559;54.176;12.102;2022-12-29T04:08:14;3.87;;;3.57;;
36551;SDS011;22559;54.176;12.102;2022-12-29T04:10:40;4.83;;;4.03;;
36551;SDS011;22559;54.176;12.102;2022-12-29T04:13:05;4.10;;;3.60;;
36551;SDS011;22559;54.176;12.102;2022-12-29T04:15:31;6.17;;;3.60;;
36551;SDS011;22559;54.176;12.102;2022-12-29T04:17:57;3.70;;;3.40;;
36551;SDS011;22559;54.176;12.102;2022-12-29T04:20:22;3.73;;;3.30;;
36551;SDS011;22559;54.176;12.102;2022-12-29T04:23:07;3.57;;;3.27;;
36551;SDS011;22559;54.176;12.102;2022-12-29T04:25:32;3.87;;;3.27;;
36551;SDS011;22559;54.176;12.102;2022-12-29T04:27:59;4.47;;;3.17;;
36551;SDS011;22559;54.176;12.102;2022-12-29T04:30:24;3.57;;;3.37;;
36551;SDS011;22559;54.176;12.102;2022-12-29T04:32:50;3.93;;;3.60;;
36551;SDS011;22559;54.176;12.102;2022-12-29T04:35:16;3.70;;;3.40;;
36551;SDS011;22559;54.176;12.102;2022-12-29T04:37:42;3.67;;;2.93;;
36551;SDS011;22559;54.176;12.102;2022-12-29T04:40:07;3.80;;;3.50;;
36551;SDS011;22559;54.176;12.102;2022-12-29T04:42:34;4.03;;;3.73;;
36551;SDS011;22559;54.176;12.102;2022-12-29T04:45:00;3.00;;;2.80;;
36551;SDS011;22559;54.176;12.102;2022-12-29T04:47:26;3.93;;;2.90;;
36551;SDS011;22559;54.176;12.102;2022-12-29T04:49:52;5.37;;;2.60;;
36551;SDS011;22559;54.176;12.102;2022-12-29T04:52:18;3.10;;;2.90;;
36551;SDS011;22559;54.176;12.102;2022-12-29T04:54:43;3.13;;;2.90;;
36551;SDS011;22559;54.176;12.102;2022-12-29T04:57:09;2.93;;;2.73;;
36551;SDS011;22559;54.176;12.102;2022-12-29T04:59:35;2.80;;;2.60;;
36551;SDS011;22559;54.176;12.102;2022-12-29T05:02:00;3.27;;;2.60;;
36551;SDS011;22559;54.176;12.102;2022-12-29T05:04:26;2.60;;;2.40;;
36551;SDS011;22559;54.176;12.102;2022-12-29T05:06:51;2.60;;;2.40;;
36551;SDS011;22559;54.176;12.102;2022-12-29T05:09:17;3.77;;;2.60;;
36551;SDS011;22559;54.176;12.102;2022-12-29T05:11:43;2.63;;;2.43;;
36551;SDS011;22559;54.176;12.102;2022-12-29T05:14:08;2.57;;;2.47;;
36551;SDS011;22559;54.176;12.102;2022-12-29T05:16:34;2.50;;;2.30;;
36551;SDS011;22559;54.176;12.102;2022-12-29T05:18:59;2.80;;;2.60;;
36551;SDS011;22559;54.176;12.102;2022-12-29T05:21:25;2.13;;;2.03;;
36551;SDS011;22559;54.176;12.102;2022-12-29T05:23:51;2.40;;;2.30;;
36551;SDS011;22559;54.176;12.102;2022-12-29T05:26:16;3.63;;;2.50;;
36551;SDS011;22559;54.176;12.102;2022-12-29T05:28:42;3.00;;;2.60;;
36551;SDS011;22559;54.176;12.102;2022-12-29T05:31:07;2.10;;;2.00;;
36551;SDS011;22559;54.176;12.102;2022-12-29T05:33:33;3.20;;;2.40;;
36551;SDS011;22559;54.176;12.102;2022-12-29T05:36:05;2.20;;;2.00;;
36551;SDS011;22559;54.176;12.102;2022-12-29T05:38:32;2.93;;;2.40;;
36551;SDS011;22559;54.176;12.102;2022-12-29T05:40:58;2.00;;;1.90;;
36551;SDS011;22559;54.176;12.102;2022-12-29T05:43:24;2.57;;;2.37;;
36551;SDS011;22559;54.176;12.102;2022-12-29T05:45:49;2.27;;;2.17;;
36551;SDS011;22559;54.176;12.102;2022-12-29T05:48:15;3.60;;;2.33;;
36551;SDS011;22559;54.176;12.102;2022-12-29T05:50:41;8.17;;;4.57;;
36551;SDS011;22559;54.176;12.102;2022-12-29T05:53:06;4.40;;;2.30;;
36551;SDS011;22559;54.176;12.102;2022-12-29T05:55:32;2.70;;;2.00;;
36551;SDS011;22559;54.176;12.102;2022-12-29T05:57:58;3.13;;;2.30;;
36551;SDS011;22559;54.176;12.102;2022-12-29T06:00:24;3.03;;;2.40;;
36551;SDS011;22559;54.176;12.102;2022-12-29T06:02:50;2.10;;;2.00;;
36551;SDS011;22559;54.176;12.102;2022-12-29T06:05:15;2.23;;;1.97;;
36551;SDS011;22559;54.176;12.102;2022-12-29T06:07:41;2.80;;;2.47;;
36551;SDS011;22559;54.176;12.102;2022-12-29T06:10:06;2.27;;;2.17;;
36551;SDS011;22559;54.176;12.102;2022-12-29T06:12:33;2.77;;;2.20;;
36551;SDS011;22559;54.176;12.102;2022-12-29T06:14:58;2.67;;;1.70;;
36551;SDS011;22559;54.176;12.102;2022-12-29T06:17:24;1.67;;;1.57;;
36551;SDS011;22559;54.176;12.102;2022-12-29T06:19:49;1.97;;;1.87;;
36551;SDS011;22559;54.176;12.102;2022-12-29T06:22:15;2.10;;;2.00;;
36551;SDS011;22559;54.176;12.102;2022-12-29T06:24:41;2.17;;;2.07;;
36551;SDS011;22559;54.176;12.102;2022-12-29T06:27:06;1.90;;;1.80;;
36551;SDS011;22559;54.176;12.102;2022-12-29T06:29:32;1.97;;;1.87;;
36551;SDS011;22559;54.176;12.102;2022-12-29T06:31:58;2.23;;;2.10;;
36551;SDS011;22559;54.176;12.102;2022-12-29T06:34:24;2.33;;;2.20;;
36551;SDS011;22559;54.176;12.102;2022-12-29T06:36:50;2.30;;;2.20;;
36551;SDS011;22559;54.176;12.102;2022-12-29T06:39:16;2.00;;;1.90;;
36551;SDS011;22559;54.176;12.102;2022-12-29T06:41:41;2.63;;;2.00;;
36551;SDS011;22559;54.176;12.102;2022-12-29T06:44:07;2.40;;;2.00;;
36551;SDS011;22559;54.176;12.102;2022-12-29T06:46:33;1.60;;;1.50;;
36551;SDS011;22559;54.176;12.102;2022-12-29T06:48:58;1.87;;;1.70;;
36551;SDS011;22559;54.176;12.102;2022-12-29T06:51:24;1.80;;;1.70;;
36551;SDS011;22559;54.176;12.102;2022-12-29T06:53:49;1.83;;;1.73;;
36551;SDS011;22559;54.176;12.102;2022-12-29T06:56:15;2.10;;;2.00;;
36551;SDS011;22559;54.176;12.102;2022-12-29T06:58:41;1.93;;;1.83;;
36551;SDS011;22559;54.176;12.102;2022-12-29T07:01:06;2.73;;;2.53;;
36551;SDS011;22559;54.176;12.102;2022-12-29T07:03:32;2.20;;;2.00;;
36551;SDS011;22559;54.176;12.102;2022-12-29T07:05:57;2.87;;;2.40;;
36551;SDS011;22559;54.176;12.102;2022-12-29T07:08:23;2.27;;;2.17;;
36551;SDS011;22559;54.176;12.102;2022-12-29T07:10:49;3.00;;;2.70;;
36551;SDS011;22559;54.176;12.102;2022-12-29T07:13:15;2.43;;;2.33;;
36551;SDS011;22559;54.176;12.102;2022-12-29T07:15:40;3.63;;;2.60;;
36551;SDS011;22559;54.176;12.102;2022-12-29T07:18:06;2.70;;;2.30;;
36551;SDS011;22559;54.176;12.102;2022-12-29T07:20:32;2.73;;;2.57;;
36551;SDS011;22559;54.176;12.102;2022-12-29T07:22:58;3.27;;;2.67;;
36551;SDS011;22559;54.176;12.102;2022-12-29T07:25:23;2.80;;;2.60;;
36551;SDS011;22559;54.176;12.102;2022-12-29T07:27:49;2.53;;;2.33;;
36551;SDS011;22559;54.176;12.102;2022-12-29T07:30:14;3.00;;;2.63;;
36551;SDS011;22559;54.176;12.102;2022-12-29T07:32:40;2.43;;;2.30;;
36551;SDS011;22559;54.176;12.102;2022-12-29T07:35:06;2.53;;;2.30;;
36551;SDS011;22559;54.176;12.102;2022-12-29T07:37:33;2.53;;;2.33;;
36551;SDS011;22559;54.176;12.102;2022-12-29T07:39:59;2.50;;;2.30;;
36551;SDS011;22559;54.176;12.102;2022-12-29T07:42:26;2.20;;;2.10;;
36551;SDS011;22559;54.176;12.102;2022-12-29T07:44:51;2.50;;;2.30;;
36551;SDS011;22559;54.176;12.102;2022-12-29T07:47:17;2.30;;;2.20;;
36551;SDS011;22559;54.176;12.102;2022-12-29T07:49:43;2.50;;;2.13;;
36551;SDS011;22559;54.176;12.102;2022-12-29T07:52:08;2.13;;;2.03;;
36551;SDS011;22559;54.176;12.102;2022-12-29T07:54:34;2.13;;;1.90;;
36551;SDS011;22559;54.176;12.102;2022-12-29T07:57:00;2.07;;;1.97;;
36551;SDS011;22559;54.176;12.102;2022-12-29T07:59:25;1.90;;;1.80;;
36551;SDS011;22559;54.176;12.102;2022-12-29T08:01:51;1.93;;;1.83;;
36551;SDS011;22559;54.176;12.102;2022-12-29T08:04:17;2.73;;;1.90;;
36551;SDS011;22559;54.176;12.102;2022-12-29T08:06:43;1.90;;;1.80;;
36551;SDS011;22559;54.176;12.102;2022-12-29T08:09:10;3.13;;;1.90;;
36551;SDS011;22559;54.176;12.102;2022-12-29T08:11:36;2.03;;;1.80;;
36551;SDS011;22559;54.176;12.102;2022-12-29T08:14:01;1.97;;;1.87;;
36551;SDS011;22559;54.176;12.102;2022-12-29T08:16:27;2.33;;;2.13;;
36551;SDS011;22559;54.176;12.102;2022-12-29T08:18:53;1.43;;;1.43;;
36551;SDS011;22559;54.176;12.102;2022-12-29T08:21:18;1.97;;;1.67;;
36551;SDS011;22559;54.176;12.102;2022-12-29T08:23:44;1.70;;;1.60;;
36551;SDS011;22559;54.176;12.102;2022-12-29T08:26:10;1.50;;;1.50;;
36551;SDS011;22559;54.176;12.102;2022-12-29T08:28:36;2.20;;;2.00;;
36551;SDS011;22559;54.176;12.102;2022-12-29T08:31:02;1.67;;;1.57;;
36551;SDS011;22559;54.176;12.102;2022-12-29T08:33:28;1.70;;;1.60;;
36551;SDS011;22559;54.176;12.102;2022-12-29T08:36:00;1.67;;;1.60;;
36551;SDS011;22559;54.176;12.102;2022-12-29T08:38:31;1.60;;;1.50;;
36551;SDS011;22559;54.176;12.102;2022-12-29T08:40:57;1.70;;;1.60;;
36551;SDS011;22559;54.176;12.102;2022-12-29T08:43:24;1.90;;;1.43;;
36551;SDS011;22559;54.176;12.102;2022-12-29T08:45:51;1.60;;;1.50;;
36551;SDS011;22559;54.176;12.102;2022-12-29T08:48:17;1.53;;;1.53;;
36551;SDS011;22559;54.176;12.102;2022-12-29T08:50:44;1.63;;;1.53;;
36551;SDS011;22559;54.176;12.102;2022-12-29T08:53:11;1.67;;;1.57;;
36551;SDS011;22559;54.176;12.102;2022-12-29T08:55:36;1.53;;;1.53;;
36551;SDS011;22559;54.176;12.102;2022-12-29T08:58:02;1.90;;;1.80;;
36551;SDS011;22559;54.176;12.102;2022-12-29T09:00:28;1.40;;;1.40;;
36551;SDS011;22559;54.176;12.102;2022-12-29T09:02:53;1.50;;;1.50;;
36551;SDS011;22559;54.176;12.102;2022-12-29T09:05:19;1.73;;;1.63;;
36551;SDS011;22559;54.176;12.102;2022-12-29T09:07:45;1.80;;;1.70;;
36551;SDS011;22559;54.176;12.102;2022-12-29T09:10:11;1.50;;;1.50;;
36551;SDS011;22559;54.176;12.102;2022-12-29T09:12:36;1.83;;;1.73;;
36551;SDS011;22559;54.176;12.102;2022-12-29T09:15:02;1.57;;;1.53;;
36551;SDS011;22559;54.176;12.102;2022-12-29T09:17:29;1.83;;;1.70;;
36551;SDS011;22559;54.176;12.102;2022-12-29T09:20:14;1.40;;;1.40;;
36551;SDS011;22559;54.176;12.102;2022-12-29T09:22:41;8.50;;;1.63;;
36551;SDS011;22559;54.176;12.102;2022-12-29T09:25:08;1.73;;;1.60;;
36551;SDS011;22559;54.176;12.102;2022-12-29T09:27:35;1.70;;;1.60;;
36551;SDS011;22559;54.176;12.102;2022-12-29T09:30:01;2.37;;;2.17;;
36551;SDS011;22559;54.176;12.102;2022-12-29T09:32:28;1.27;;;1.27;;
36551;SDS011;22559;54.176;12.102;2022-12-29T09:34:53;1.73;;;1.63;;
36551;SDS011;22559;54.176;12.102;2022-12-29T09:37:19;1.63;;;1.53;;
36551;SDS011;22559;54.176;12.102;2022-12-29T09:39:46;1.80;;;1.40;;
36551;SDS011;22559;54.176;12.102;2022-12-29T09:47:08;1.60;;;1.50;;
36551;SDS011;22559;54.176;12.102;2022-12-29T09:49:43;1.77;;;1.70;;
36551;SDS011;22559;54.176;12.102;2022-12-29T09:52:47;1.33;;;1.33;;
36551;SDS011;22559;54.176;12.102;2022-12-29T09:55:50;4.07;;;1.47;;
36551;SDS011;22559;54.176;12.102;2022-12-29T09:58:30;3.10;;;1.50;;
36551;SDS011;22559;54.176;12.102;2022-12-29T10:01:21;1.30;;;1.30;;
36551;SDS011;22559;54.176;12.102;2022-12-29T10:04:06;1.67;;;1.20;;
36551;SDS011;22559;54.176;12.102;2022-12-29T10:06:46;1.10;;;1.10;;
36551;SDS011;22559;54.176;12.102;2022-12-29T10:25:39;1.00;;;1.00;;
36551;SDS011;22559;54.176;12.102;2022-12-29T10:28:11;0.80;;;0.80;;
36551;SDS011;22559;54.176;12.102;2022-12-29T10:30:41;2.50;;;1.03;;
36551;SDS011;22559;54.176;12.102;2022-12-29T10:33:11;0.90;;;0.90;;
36551;SDS011;22559;54.176;12.102;2022-12-29T10:35:43;1.47;;;1.00;;
36551;SDS011;22559;54.176;12.102;2022-12-29T10:44:02;2.43;;;1.20;;
36551;SDS011;22559;54.176;12.102;2022-12-29T10:46:29;0.90;;;0.90;;
36551;SDS011;22559;54.176;12.102;2022-12-29T10:48:59;1.20;;;1.10;;
36551;SDS011;22559;54.176;12.102;2022-12-29T10:51:30;3.80;;;1.50;;
36551;SDS011;22559;54.176;12.102;2022-12-29T10:53:59;2.40;;;1.60;;
36551;SDS011;22559;54.176;12.102;2022-12-29T10:56:34;3.07;;;2.87;;
36551;SDS011;22559;54.176;12.102;2022-12-29T10:59:18;1.17;;;1.07;;
36551;SDS011;22559;54.176;12.102;2022-12-29T11:02:39;2.57;;;1.10;;
36551;SDS011;22559;54.176;12.102;2022-12-29T11:08:02;2.53;;;1.33;;
36551;SDS011;22559;54.176;12.102;2022-12-29T11:10:40;1.97;;;1.70;;
36551;SDS011;22559;54.176;12.102;2022-12-29T11:13:18;1.83;;;1.10;;
36551;SDS011;22559;54.176;12.102;2022-12-29T11:15:50;1.00;;;1.00;;
36551;SDS011;22559;54.176;12.102;2022-12-29T11:18:20;1.03;;;1.00;;
36551;SDS011;22559;54.176;12.102;2022-12-29T11:20:46;1.43;;;1.27;;
36551;SDS011;22559;54.176;12.102;2022-12-29T11:23:46;2.33;;;1.03;;
36551;SDS011;22559;54.176;12.102;2022-12-29T11:28:41;2.10;;;1.00;;
36551;SDS011;22559;54.176;12.102;2022-12-29T11:31:09;3.27;;;1.13;;
36551;SDS011;22559;54.176;12.102;2022-12-29T11:33:36;1.03;;;1.00;;
36551;SDS011;22559;54.176;12.102;2022-12-29T11:36:06;5.70;;;1.07;;
36551;SDS011;22559;54.176;12.102;2022-12-29T11:38:48;1.90;;;1.07;;
36551;SDS011;22559;54.176;12.102;2022-12-29T11:41:20;0.80;;;0.80;;
36551;SDS011;22559;54.176;12.102;2022-12-29T11:43:50;4.20;;;1.00;;
36551;SDS011;22559;54.176;12.102;2022-12-29T11:46:18;1.90;;;1.27;;
36551;SDS011;22559;54.176;12.102;2022-12-29T11:48:48;2.57;;;1.20;;
36551;SDS011;22559;54.176;12.102;2022-12-29T11:51:20;1.80;;;1.03;;
36551;SDS011;22559;54.176;12.102;2022-12-29T11:53:50;3.73;;;1.30;;
36551;SDS011;22559;54.176;12.102;2022-12-29T11:57:08;3.17;;;0.90;;
36551;SDS011;22559;54.176;12.102;2022-12-29T11:59:25;2.10;;;0.97;;
36551;SDS011;22559;54.176;12.102;2022-12-29T12:01:59;1.20;;;0.90;;
36551;SDS011;22559;54.176;12.102;2022-12-29T12:04:40;2.00;;;0.93;;
36551;SDS011;22559;54.176;12.102;2022-12-29T12:07:14;3.20;;;1.47;;
36551;SDS011;22559;54.176;12.102;2022-12-29T12:09:57;2.77;;;1.10;;
36551;SDS011;22559;54.176;12.102;2022-12-29T12:15:23;3.53;;;1.10;;
36551;SDS011;22559;54.176;12.102;2022-12-29T12:18:03;2.17;;;1.20;;
36551;SDS011;22559;54.176;12.102;2022-12-29T12:23:27;1.90;;;1.00;;
36551;SDS011;22559;54.176;12.102;2022-12-29T12:31:27;3.13;;;1.10;;
36551;SDS011;22559;54.176;12.102;2022-12-29T12:34:38;3.13;;;1.50;;
36551;SDS011;22559;54.176;12.102;2022-12-29T13:04:56;1.60;;;1.27;;
36551;SDS011;22559;54.176;12.102;2022-12-29T13:15:41;1.60;;;1.13;;
36551;SDS011;22559;54.176;12.102;2022-12-29T13:18:30;4.97;;;1.87;;
36551;SDS011;22559;54.176;12.102;2022-12-29T13:24:10;3.17;;;1.30;;
36551;SDS011;22559;54.176;12.102;2022-12-29T13:38:03;2.43;;;1.37;;
36551;SDS011;22559;54.176;12.102;2022-12-29T13:40:38;3.87;;;1.40;;
36551;SDS011;22559;54.176;12.102;2022-12-29T13:43:08;2.47;;;0.90;;
36551;SDS011;22559;54.176;12.102;2022-12-29T13:45:34;3.27;;;1.30;;
36551;SDS011;22559;54.176;12.102;2022-12-29T13:48:10;2.30;;;1.23;;
36551;SDS011;22559;54.176;12.102;2022-12-29T13:50:55;1.93;;;1.10;;
36551;SDS011;22559;54.176;12.102;2022-12-29T13:56:07;1.77;;;1.17;;
36551;SDS011;22559;54.176;12.102;2022-12-29T13:58:48;2.37;;;1.13;;
36551;SDS011;22559;54.176;12.102;2022-12-29T14:01:25;2.47;;;1.37;;
36551;SDS011;22559;54.176;12.102;2022-12-29T14:03:55;3.97;;;1.40;;
36551;SDS011;22559;54.176;12.102;2022-12-29T14:06:32;1.83;;;1.10;;
36551;SDS011;22559;54.176;12.102;2022-12-29T14:09:05;3.17;;;1.50;;
36551;SDS011;22559;54.176;12.102;2022-12-29T14:11:51;1.43;;;1.03;;
36551;SDS011;22559;54.176;12.102;2022-12-29T14:16:47;4.10;;;1.27;;
36551;SDS011;22559;54.176;12.102;2022-12-29T14:19:18;2.73;;;1.30;;
36551;SDS011;22559;54.176;12.102;2022-12-29T14:21:58;4.83;;;1.40;;
36551;SDS011;22559;54.176;12.102;2022-12-29T14:29:50;3.20;;;1.23;;
36551;SDS011;22559;54.176;12.102;2022-12-29T14:42:48;3.47;;;1.63;;
36551;SDS011;22559;54.176;12.102;2022-12-29T14:47:49;4.63;;;1.30;;
36551;SDS011;22559;54.176;12.102;2022-12-29T14:57:41;2.93;;;1.43;;
36551;SDS011;22559;54.176;12.102;2022-12-29T15:00:18;5.37;;;1.73;;
36551;SDS011;22559;54.176;12.102;2022-12-29T15:02:49;3.93;;;1.83;;
36551;SDS011;22559;54.176;12.102;2022-12-29T15:05:22;1.93;;;1.13;;
36551;SDS011;22559;54.176;12.102;2022-12-29T15:08:05;3.07;;;1.30;;
36551;SDS011;22559;54.176;12.102;2022-12-29T15:10:37;3.60;;;1.70;;
36551;SDS011;22559;54.176;12.102;2022-12-29T15:13:24;5.37;;;1.63;;
36551;SDS011;22559;54.176;12.102;2022-12-29T15:15:58;2.97;;;1.50;;
36551;SDS011;22559;54.176;12.102;2022-12-29T15:18:30;3.03;;;1.13;;
36551;SDS011;22559;54.176;12.102;2022-12-29T15:20:58;2.43;;;1.00;;
36551;SDS011;22559;54.176;12.102;2022-12-29T15:23:26;5.57;;;1.30;;
36551;SDS011;22559;54.176;12.102;2022-12-29T15:25:55;1.87;;;1.30;;
36551;SDS011;22559;54.176;12.102;2022-12-29T15:28:36;2.67;;;1.27;;
36551;SDS011;22559;54.176;12.102;2022-12-29T15:31:05;3.23;;;1.67;;
36551;SDS011;22559;54.176;12.102;2022-12-29T15:33:37;4.00;;;2.00;;
36551;SDS011;22559;54.176;12.102;2022-12-29T15:36:10;4.37;;;1.63;;
36551;SDS011;22559;54.176;12.102;2022-12-29T15:38:44;2.17;;;1.50;;
36551;SDS011;22559;54.176;12.102;2022-12-29T15:44:30;3.43;;;1.70;;
36551;SDS011;22559;54.176;12.102;2022-12-29T15:47:03;5.33;;;1.63;;
36551;SDS011;22559;54.176;12.102;2022-12-29T15:49:30;7.63;;;3.00;;
36551;SDS011;22559;54.176;12.102;2022-12-29T15:51:56;12.90;;;5.43;;
36551;SDS011;22559;54.176;12.102;2022-12-29T15:54:23;4.50;;;2.43;;
36551;SDS011;22559;54.176;12.102;2022-12-29T15:56:50;4.53;;;2.63;;
36551;SDS011;22559;54.176;12.102;2022-12-29T15:59:32;3.00;;;2.10;;
36551;SDS011;22559;54.176;12.102;2022-12-29T16:01:59;3.37;;;3.07;;
36551;SDS011;22559;54.176;12.102;2022-12-29T16:04:27;2.50;;;1.37;;
36551;SDS011;22559;54.176;12.102;2022-12-29T16:06:58;1.47;;;1.37;;
36551;SDS011;22559;54.176;12.102;2022-12-29T16:09:32;4.37;;;1.80;;
36551;SDS011;22559;54.176;12.102;2022-12-29T16:11:59;10.93;;;5.00;;
36551;SDS011;22559;54.176;12.102;2022-12-29T16:17:26;3.30;;;1.37;;
36551;SDS011;22559;54.176;12.102;2022-12-29T16:19:55;2.73;;;1.70;;
36551;SDS011;22559;54.176;12.102;2022-12-29T16:22:26;3.23;;;1.60;;
36551;SDS011;22559;54.176;12.102;2022-12-29T16:25:03;2.03;;;1.83;;
36551;SDS011;22559;54.176;12.102;2022-12-29T16:27:44;2.60;;;1.53;;
36551;SDS011;22559;54.176;12.102;2022-12-29T16:30:24;5.93;;;1.50;;
36551;SDS011;22559;54.176;12.102;2022-12-29T16:33:01;3.20;;;1.87;;
36551;SDS011;22559;54.176;12.102;2022-12-29T16:35:29;3.37;;;1.80;;
36551;SDS011;22559;54.176;12.102;2022-12-29T16:38:16;1.87;;;1.60;;
36551;SDS011;22559;54.176;12.102;2022-12-29T16:40:53;1.97;;;1.50;;
36551;SDS011;22559;54.176;12.102;2022-12-29T16:50:52;7.50;;;1.73;;
36551;SDS011;22559;54.176;12.102;2022-12-29T16:53:32;1.87;;;1.57;;
36551;SDS011;22559;54.176;12.102;2022-12-29T16:56:05;1.60;;;1.37;;
36551;SDS011;22559;54.176;12.102;2022-12-29T16:58:39;1.60;;;1.37;;
36551;SDS011;22559;54.176;12.102;2022-12-29T17:01:05;2.50;;;1.73;;
36551;SDS011;22559;54.176;12.102;2022-12-29T17:03:40;2.73;;;1.53;;
36551;SDS011;22559;54.176;12.102;2022-12-29T17:06:14;3.10;;;1.60;;
36551;SDS011;22559;54.176;12.102;2022-12-29T17:08:43;5.37;;;1.77;;
36551;SDS011;22559;54.176;12.102;2022-12-29T17:16:55;1.70;;;1.50;;
36551;SDS011;22559;54.176;12.102;2022-12-29T17:19:23;2.20;;;1.70;;
36551;SDS011;22559;54.176;12.102;2022-12-29T17:21:54;2.20;;;1.60;;
36551;SDS011;22559;54.176;12.102;2022-12-29T17:24:20;1.77;;;1.40;;
36551;SDS011;22559;54.176;12.102;2022-12-29T17:26:47;3.00;;;1.60;;
36551;SDS011;22559;54.176;12.102;2022-12-29T17:29:35;2.80;;;1.80;;
36551;SDS011;22559;54.176;12.102;2022-12-29T17:32:03;3.87;;;2.50;;
36551;SDS011;22559;54.176;12.102;2022-12-29T17:34:32;3.97;;;2.50;;
36551;SDS011;22559;54.176;12.102;2022-12-29T17:36:58;3.43;;;2.67;;
36551;SDS011;22559;54.176;12.102;2022-12-29T17:39:23;2.37;;;2.00;;
36551;SDS011;22559;54.176;12.102;2022-12-29T17:41:49;4.77;;;2.30;;
36551;SDS011;22559;54.176;12.102;2022-12-29T17:44:16;4.53;;;2.17;;
36551;SDS011;22559;54.176;12.102;2022-12-29T17:46:44;3.97;;;2.47;;
36551;SDS011;22559;54.176;12.102;2022-12-29T17:49:14;4.50;;;2.10;;
36551;SDS011;22559;54.176;12.102;2022-12-29T17:51:42;2.97;;;2.63;;
36551;SDS011;22559;54.176;12.102;2022-12-29T17:54:20;7.50;;;2.43;;
36551;SDS011;22559;54.176;12.102;2022-12-29T17:56:48;6.17;;;2.60;;